Time;durP1;ratioP1;P1;durP2;ratioP2;P2;SDS_P1;SDS_P2;PMS_P1;PMS_P2;Temp;Humidity;BMP_temperature;BMP_pressure;BME280_temperature;BME280_humidity;BME280_pressure;Samples;Min_cycle;Max_cycle;Signal;HPM_P1;HPM_P2
2021/05/10 00:00:49;;;;;;;2.35;0.38;;;22.20;57.00;;;;;;5071349;28;20418;-56
2021/05/10 00:03:15;;;;;;;10.63;5.50;;;22.20;57.40;;;;;;5071585;28;20926;-56
2021/05/10 00:05:40;;;;;;;4.28;1.55;;;22.10;58.20;;;;;;5072950;28;20028;-57
2021/05/10 00:08:07;;;;;;;2.40;0.50;;;22.10;58.10;;;;;;5069687;28;20054;-56
2021/05/10 00:10:34;;;;;;;1.70;0.40;;;22.10;57.80;;;;;;5086302;28;20035;-56
2021/05/10 00:13:00;;;;;;;2.15;0.90;;;22.00;57.90;;;;;;5086004;28;20024;-56
2021/05/10 00:15:31;;;;;;;0.73;0.50;;;22.00;58.60;;;;;;5069118;28;20364;-56
2021/05/10 00:18:05;;;;;;;1.83;0.82;;;21.90;58.90;;;;;;5069632;28;20104;-56
2021/05/10 00:20:33;;;;;;;2.28;0.88;;;21.90;58.80;;;;;;5069412;28;20057;-56
2021/05/10 00:23:00;;;;;;;2.45;0.57;;;21.80;59.00;;;;;;5068919;28;20024;-56
2021/05/10 00:25:28;;;;;;;0.50;0.40;;;21.80;59.00;;;;;;5068687;28;20157;-57
2021/05/10 00:27:54;;;;;;;1.98;0.60;;;21.80;60.00;;;;;;5069157;28;20412;-56
2021/05/10 00:30:22;;;;;;;4.25;0.60;;;21.70;60.10;;;;;;5067949;28;20040;-58
2021/05/10 00:32:48;;;;;;;3.83;0.88;;;21.70;59.50;;;;;;5069693;28;20123;-56
2021/05/10 00:35:16;;;;;;;1.60;0.57;;;21.70;59.50;;;;;;5085948;28;20032;-56
2021/05/10 00:37:43;;;;;;;1.98;0.55;;;21.70;59.20;;;;;;5070263;28;20098;-56
2021/05/10 00:40:12;;;;;;;1.75;0.70;;;21.70;59.30;;;;;;5070285;28;20039;-56
2021/05/10 00:42:39;;;;;;;0.93;0.55;;;21.80;59.20;;;;;;5055241;28;20028;-56
2021/05/10 00:45:06;;;;;;;1.38;0.75;;;21.80;58.90;;;;;;5069763;28;20060;-56
2021/05/10 00:47:35;;;;;;;2.20;0.63;;;21.80;58.90;;;;;;5071456;28;20036;-56
2021/05/10 00:50:01;;;;;;;13.98;1.05;;;21.80;59.10;;;;;;5069096;28;20040;-56
2021/05/10 00:52:27;;;;;;;0.95;0.40;;;21.80;59.10;;;;;;5072389;28;20043;-56
2021/05/10 00:54:54;;;;;;;3.33;0.50;;;21.80;59.20;;;;;;5072228;28;20036;-56
2021/05/10 00:57:20;;;;;;;1.45;0.50;;;21.70;59.40;;;;;;5086769;28;20024;-56
2021/05/10 00:59:52;;;;;;;0.80;0.50;;;21.70;59.50;;;;;;5070697;28;20067;-56
2021/05/10 01:02:20;;;;;;;1.20;0.60;;;21.70;59.70;;;;;;5087000;28;21928;-56
2021/05/10 01:04:47;;;;;;;5.47;0.75;;;21.60;59.60;;;;;;5068940;28;20469;-56
2021/05/10 01:07:13;;;;;;;0.80;0.43;;;21.60;60.10;;;;;;5069565;28;20135;-56
2021/05/10 01:09:39;;;;;;;3.55;0.50;;;21.60;60.20;;;;;;5069556;28;22056;-56
2021/05/10 01:12:06;;;;;;;1.60;0.47;;;21.60;60.70;;;;;;5070040;28;20024;-56
2021/05/10 01:14:32;;;;;;;1.92;0.57;;;21.50;61.10;;;;;;5067088;28;20028;-56
2021/05/10 01:16:58;;;;;;;3.55;0.50;;;21.50;61.30;;;;;;5084639;28;20032;-56
2021/05/10 01:19:28;;;;;;;6.03;0.88;;;21.50;62.00;;;;;;5068402;28;20039;-56
2021/05/10 01:21:56;;;;;;;0.70;0.50;;;21.40;62.20;;;;;;5068922;28;20025;-56
2021/05/10 01:24:27;;;;;;;1.50;0.63;;;21.40;62.50;;;;;;5070860;28;20051;-56
2021/05/10 01:26:53;;;;;;;2.72;0.70;;;21.30;63.10;;;;;;5069460;28;20147;-55
2021/05/10 01:29:19;;;;;;;0.80;0.63;;;21.30;63.80;;;;;;5067120;28;20542;-56
2021/05/10 01:31:47;;;;;;;2.42;0.60;;;21.20;63.70;;;;;;5066862;28;20145;-55
2021/05/10 01:34:16;;;;;;;1.52;0.85;;;21.20;63.80;;;;;;5067885;28;20040;-56
2021/05/10 01:36:44;;;;;;;0.85;0.40;;;21.20;64.60;;;;;;5083149;28;20028;-56
2021/05/10 01:39:09;;;;;;;2.17;0.80;;;21.20;64.60;;;;;;5067304;28;20487;-56
2021/05/10 01:41:35;;;;;;;1.52;0.47;;;21.20;64.60;;;;;;5069033;28;20028;-56
2021/05/10 01:44:01;;;;;;;0.95;0.40;;;21.20;62.80;;;;;;5068918;28;20043;-55
2021/05/10 01:46:31;;;;;;;1.83;0.98;;;21.30;61.20;;;;;;5069023;28;20036;-55
2021/05/10 01:48:56;;;;;;;0.95;0.40;;;21.40;60.10;;;;;;5069110;28;20051;-56
2021/05/10 01:51:25;;;;;;;2.33;0.50;;;21.70;58.90;;;;;;5066555;28;20037;-56
2021/05/10 01:53:51;;;;;;;0.60;0.30;;;21.90;57.70;;;;;;5065899;28;20036;-56
2021/05/10 01:56:19;;;;;;;2.45;0.43;;;22.00;57.30;;;;;;5084202;28;20043;-56
2021/05/10 01:58:59;;;;;;;3.97;0.50;;;22.10;57.10;;;;;;5067265;28;20047;-56
2021/05/10 02:01:24;;;;;;;1.80;0.73;;;22.20;56.80;;;;;;5083985;28;20130;-55
2021/05/10 02:03:50;;;;;;;0.68;0.40;;;22.20;56.60;;;;;;5068910;28;20457;-56
2021/05/10 02:06:16;;;;;;;0.93;0.52;;;22.30;56.60;;;;;;5067550;28;20029;-56
2021/05/10 02:08:44;;;;;;;1.38;0.50;;;22.30;56.70;;;;;;5068152;28;20033;-56
2021/05/10 02:11:09;;;;;;;2.50;0.43;;;22.30;56.80;;;;;;5069522;28;20024;-56
2021/05/10 02:13:37;;;;;;;1.02;0.40;;;22.20;57.20;;;;;;5068183;28;20090;-56
2021/05/10 02:16:04;;;;;;;1.77;0.65;;;22.10;57.30;;;;;;5083948;28;20063;-57
2021/05/10 02:18:34;;;;;;;2.42;0.50;;;22.10;57.60;;;;;;5071685;28;20058;-56
2021/05/10 02:21:01;;;;;;;0.55;0.50;;;22.10;57.90;;;;;;5085023;28;20043;-56
2021/05/10 02:23:34;;;;;;;4.50;0.52;;;22.00;58.10;;;;;;5068457;28;20439;-56
2021/05/10 02:26:03;;;;;;;1.60;0.40;;;21.90;59.00;;;;;;5069703;28;20586;-56
2021/05/10 02:28:32;;;;;;;0.63;0.50;;;21.90;58.60;;;;;;5069403;28;20198;-56
2021/05/10 02:31:00;;;;;;;1.90;0.45;;;21.80;58.90;;;;;;5068541;28;20064;-56
2021/05/10 02:33:28;;;;;;;8.85;0.40;;;21.80;59.40;;;;;;5067854;28;20040;-56
2021/05/10 02:35:54;;;;;;;2.25;0.80;;;21.80;59.30;;;;;;5069086;28;20524;-57
2021/05/10 02:38:22;;;;;;;1.40;0.60;;;21.70;59.70;;;;;;5068138;28;20032;-56
2021/05/10 02:40:48;;;;;;;1.73;0.77;;;21.70;60.00;;;;;;5067938;28;20063;-56
2021/05/10 02:43:18;;;;;;;2.50;0.60;;;21.70;60.60;;;;;;5069367;28;20036;-57
2021/05/10 02:45:44;;;;;;;0.75;0.43;;;21.60;60.80;;;;;;5067913;28;20085;-56
2021/05/10 02:48:10;;;;;;;0.93;0.40;;;21.50;61.20;;;;;;5067116;28;20119;-57
2021/05/10 02:50:36;;;;;;;4.20;0.45;;;21.50;61.80;;;;;;5084736;28;20123;-56
2021/05/10 02:53:04;;;;;;;1.42;0.77;;;21.50;61.60;;;;;;5068324;28;20171;-56
2021/05/10 02:55:30;;;;;;;1.80;0.50;;;21.40;61.80;;;;;;5084918;28;20041;-56
2021/05/10 02:57:56;;;;;;;2.50;0.60;;;21.40;62.10;;;;;;5068596;28;20110;-56
2021/05/10 03:00:27;;;;;;;4.28;0.60;;;21.40;62.10;;;;;;5068313;28;20051;-56
2021/05/10 03:02:56;;;;;;;0.98;0.50;;;21.40;63.20;;;;;;5068524;28;20556;-56
2021/05/10 03:05:26;;;;;;;4.40;1.70;;;21.30;62.80;;;;;;5068401;28;20040;-57
2021/05/10 03:07:52;;;;;;;3.25;0.63;;;21.30;63.60;;;;;;5067705;28;20035;-56
2021/05/10 03:10:22;;;;;;;1.58;0.43;;;21.10;64.50;;;;;;5083915;28;20066;-56
2021/05/10 03:12:48;;;;;;;3.70;0.70;;;21.10;65.20;;;;;;5067474;28;20649;-56
2021/05/10 03:15:16;;;;;;;3.35;0.50;;;21.00;65.90;;;;;;5083980;28;20461;-56
2021/05/10 03:17:42;;;;;;;0.65;0.40;;;21.00;65.00;;;;;;5068851;28;20059;-56
2021/05/10 03:20:11;;;;;;;2.90;1.00;;;21.00;65.20;;;;;;5053869;28;20032;-56
2021/05/10 03:22:37;;;;;;;4.25;0.85;;;21.00;65.60;;;;;;5068193;28;20033;-56
2021/05/10 03:25:07;;;;;;;2.30;0.65;;;20.90;65.50;;;;;;5065915;28;20036;-56
2021/05/10 03:27:40;;;;;;;1.17;0.50;;;20.90;65.80;;;;;;5068808;28;20036;-56
2021/05/10 03:30:11;;;;;;;0.30;0.30;;;20.80;67.00;;;;;;5066149;28;20162;-56
2021/05/10 03:32:39;;;;;;;0.82;0.32;;;20.80;66.30;;;;;;5064604;28;20722;-56
2021/05/10 03:35:07;;;;;;;3.08;0.70;;;20.80;66.20;;;;;;5065927;28;20519;-55
2021/05/10 03:37:33;;;;;;;1.77;0.85;;;20.80;66.10;;;;;;5067498;28;20017;-56
2021/05/10 03:39:59;;;;;;;3.92;1.33;;;20.90;66.40;;;;;;5068040;28;20063;-56
2021/05/10 03:42:25;;;;;;;1.33;0.43;;;20.80;66.50;;;;;;5066291;28;20686;-57
2021/05/10 03:44:51;;;;;;;1.50;0.98;;;20.80;66.50;;;;;;5065313;28;20065;-56
2021/05/10 03:47:17;;;;;;;2.22;0.80;;;20.80;67.00;;;;;;5065432;28;20036;-56
2021/05/10 03:49:42;;;;;;;1.42;0.45;;;20.80;67.50;;;;;;5066149;28;20040;-56
2021/05/10 03:52:08;;;;;;;1.33;0.60;;;20.80;67.40;;;;;;5066725;28;20516;-56
2021/05/10 03:54:34;;;;;;;3.35;0.75;;;20.80;67.60;;;;;;5066999;28;20114;-56
2021/05/10 03:57:03;;;;;;;2.70;1.08;;;20.80;69.30;;;;;;5084060;28;20119;-56
2021/05/10 03:59:28;;;;;;;1.45;0.63;;;20.80;69.20;;;;;;5066712;28;21996;-55
2021/05/10 04:01:57;;;;;;;4.30;0.63;;;20.70;68.70;;;;;;5065424;28;20044;-56
2021/05/10 04:04:27;;;;;;;0.90;0.50;;;20.70;68.00;;;;;;5080932;28;20446;-56
2021/05/10 04:07:12;;;;;;;0.52;0.50;;;20.80;67.20;;;;;;5081196;28;20036;-56
2021/05/10 04:10:24;;;;;;;2.47;1.20;;;20.90;66.90;;;;;;5066242;28;20044;-55
2021/05/10 04:15:14;;;;;;;7.00;0.73;;;21.10;68.10;;;;;;5067614;28;20039;-57
2021/05/10 04:17:42;;;;;;;4.43;0.68;;;21.00;70.50;;;;;;5067964;28;20483;-55
2021/05/10 04:20:11;;;;;;;4.07;0.60;;;20.60;77.70;;;;;;5067634;28;20039;-55
2021/05/10 04:22:38;;;;;;;2.30;0.63;;;20.00;81.50;;;;;;5067433;28;20036;-55
2021/05/10 04:25:05;;;;;;;3.10;0.80;;;19.70;84.60;;;;;;5067460;28;20039;-55
2021/05/10 04:27:31;;;;;;;0.60;0.30;;;19.60;87.90;;;;;;5067413;28;20039;-56
2021/05/10 04:29:57;;;;;;;1.77;0.45;;;19.50;90.10;;;;;;5083780;28;20040;-55
2021/05/10 04:32:22;;;;;;;1.45;0.40;;;19.50;89.80;;;;;;5052556;28;20036;-55
2021/05/10 04:34:48;;;;;;;3.30;0.80;;;19.60;88.90;;;;;;5067194;28;20032;-55
2021/05/10 04:37:15;;;;;;;2.33;0.65;;;19.50;89.70;;;;;;5067884;28;20024;-55
2021/05/10 04:39:41;;;;;;;3.08;0.70;;;19.60;87.30;;;;;;5065543;28;20039;-55
2021/05/10 04:42:07;;;;;;;6.07;0.93;;;19.70;87.40;;;;;;5066807;28;20067;-55
2021/05/10 04:44:32;;;;;;;2.08;0.70;;;19.80;85.60;;;;;;5068771;28;20540;-55
2021/05/10 04:46:58;;;;;;;1.73;0.60;;;19.90;84.70;;;;;;5067594;28;20047;-55
2021/05/10 04:49:23;;;;;;;0.47;0.40;;;20.00;82.70;;;;;;5083020;28;20658;-55
2021/05/10 04:51:49;;;;;;;5.53;0.57;;;20.20;80.40;;;;;;5067642;28;20040;-55
2021/05/10 04:54:15;;;;;;;1.98;0.70;;;20.30;80.00;;;;;;5067407;28;20059;-55
2021/05/10 04:56:40;;;;;;;2.10;0.40;;;20.30;79.10;;;;;;5066560;28;20500;-55
2021/05/10 04:59:06;;;;;;;0.70;0.43;;;20.40;77.50;;;;;;5068148;28;20036;-55
2021/05/10 05:01:31;;;;;;;3.65;0.98;;;20.40;78.10;;;;;;5067542;28;20067;-55
2021/05/10 05:03:57;;;;;;;2.05;0.88;;;20.60;75.80;;;;;;5067297;28;20032;-55
2021/05/10 05:06:23;;;;;;;0.95;0.52;;;20.60;75.50;;;;;;5067899;28;20052;-56
2021/05/10 05:08:53;;;;;;;2.67;0.55;;;20.60;75.40;;;;;;5068386;28;20038;-55
2021/05/10 05:11:21;;;;;;;1.73;0.50;;;20.60;75.60;;;;;;5066773;28;20028;-56
2021/05/10 05:13:49;;;;;;;1.75;0.40;;;20.60;76.10;;;;;;5067865;28;20040;-55
2021/05/10 05:16:17;;;;;;;2.88;0.47;;;20.60;75.90;;;;;;5066935;28;20048;-55
2021/05/10 05:18:43;;;;;;;1.02;0.52;;;20.60;76.00;;;;;;5067040;28;20365;-55
2021/05/10 05:21:13;;;;;;;0.52;0.40;;;20.60;76.30;;;;;;5083115;28;20035;-55
2021/05/10 05:23:41;;;;;;;2.78;0.50;;;20.60;76.60;;;;;;5067196;28;20372;-55
2021/05/10 05:26:07;;;;;;;2.67;0.30;;;20.60;76.50;;;;;;5068154;28;20086;-56
2021/05/10 05:28:33;;;;;;;2.25;0.40;;;20.50;77.20;;;;;;5067474;28;20044;-55
2021/05/10 05:31:01;;;;;;;6.78;1.17;;;20.50;77.20;;;;;;5067673;28;20024;-56
2021/05/10 05:33:29;;;;;;;1.48;0.50;;;20.60;77.40;;;;;;5067488;28;20531;-56
2021/05/10 05:35:57;;;;;;;1.88;0.40;;;20.50;78.00;;;;;;5066973;28;20068;-55
2021/05/10 05:38:27;;;;;;;1.52;0.52;;;20.50;78.10;;;;;;5066152;28;20515;-55
2021/05/10 05:40:52;;;;;;;0.60;0.30;;;20.50;78.20;;;;;;5082506;28;20452;-55
2021/05/10 05:43:18;;;;;;;2.75;0.57;;;20.50;78.10;;;;;;5065653;28;20119;-56
2021/05/10 05:45:44;;;;;;;1.33;0.65;;;20.50;78.10;;;;;;5067034;28;20102;-55
2021/05/10 05:48:11;;;;;;;1.63;0.73;;;20.50;78.40;;;;;;5066624;28;20039;-56
2021/05/10 05:50:40;;;;;;;0.68;0.40;;;20.50;78.60;;;;;;5065534;28;20033;-56
2021/05/10 05:53:07;;;;;;;5.10;0.47;;;20.50;78.60;;;;;;5066880;28;20598;-56
2021/05/10 05:55:33;;;;;;;2.47;0.38;;;20.50;79.60;;;;;;5067036;28;20085;-56
2021/05/10 05:57:59;;;;;;;1.40;0.45;;;20.50;79.20;;;;;;5066515;28;20024;-55
2021/05/10 06:00:25;;;;;;;1.55;0.60;;;20.50;78.70;;;;;;5064920;28;20047;-56
2021/05/10 06:02:50;;;;;;;3.00;0.68;;;20.60;79.20;;;;;;5066606;28;20048;-56
2021/05/10 06:05:16;;;;;;;2.00;0.60;;;20.60;79.10;;;;;;5066403;28;20115;-56
2021/05/10 06:07:47;;;;;;;2.28;1.73;;;20.50;80.00;;;;;;5081778;28;20179;-56
2021/05/10 06:10:19;;;;;;;1.52;0.50;;;20.60;80.40;;;;;;5065794;28;20689;-56
2021/05/10 06:12:47;;;;;;;1.27;0.50;;;20.60;80.30;;;;;;5065366;28;20036;-55
2021/05/10 06:15:16;;;;;;;2.38;0.70;;;20.60;79.90;;;;;;5066559;28;20048;-55
2021/05/10 06:17:44;;;;;;;1.95;0.65;;;20.70;80.30;;;;;;5065079;28;20025;-55
2021/05/10 06:20:11;;;;;;;5.18;0.40;;;20.70;81.00;;;;;;5065844;28;20585;-56
2021/05/10 06:22:38;;;;;;;1.13;0.40;;;20.70;81.90;;;;;;5081663;28;20056;-55
2021/05/10 06:25:09;;;;;;;3.53;0.63;;;20.50;83.40;;;;;;5066027;28;20021;-55
2021/05/10 06:27:34;;;;;;;1.65;0.60;;;20.40;84.40;;;;;;5066348;28;20134;-55
2021/05/10 06:30:00;;;;;;;4.20;1.15;;;20.30;85.90;;;;;;5065223;28;20028;-61
2021/05/10 06:32:26;;;;;;;1.75;0.40;;;20.20;86.70;;;;;;5065915;28;20419;-56
2021/05/10 06:34:51;;;;;;;5.63;1.48;;;20.20;87.60;;;;;;5080774;28;20036;-55
2021/05/10 06:37:21;;;;;;;3.30;1.27;;;20.10;88.20;;;;;;5066154;28;20039;-56
2021/05/10 06:39:48;;;;;;;4.88;0.90;;;20.10;88.10;;;;;;5065686;28;20028;-55
2021/05/10 06:42:14;;;;;;;0.95;0.43;;;20.10;88.10;;;;;;5065583;28;20035;-56
2021/05/10 06:44:40;;;;;;;2.20;0.82;;;20.20;88.30;;;;;;5064874;28;20139;-56
2021/05/10 06:47:06;;;;;;;1.80;0.43;;;20.30;88.50;;;;;;5064167;28;20032;-56
2021/05/10 06:49:32;;;;;;;2.17;0.63;;;20.30;88.00;;;;;;5065568;28;20036;-57
2021/05/10 06:52:00;;;;;;;3.45;0.68;;;20.60;87.20;;;;;;5065267;28;20032;-57
2021/05/10 06:54:26;;;;;;;3.80;0.60;;;20.90;86.60;;;;;;5080355;28;20047;-57
2021/05/10 06:56:52;;;;;;;7.43;4.15;;;21.10;84.60;;;;;;5064761;28;20024;-56
2021/05/10 06:59:18;;;;;;;0.93;0.65;;;21.20;83.50;;;;;;5064932;28;20028;-56
2021/05/10 07:01:44;;;;;;;4.93;0.60;;;21.20;82.60;;;;;;5064379;28;20128;-57
2021/05/10 07:04:15;;;;;;;0.88;0.50;;;21.20;83.00;;;;;;5062827;28;20032;-57
2021/05/10 07:06:44;;;;;;;3.92;0.60;;;21.30;82.50;;;;;;5080286;28;20028;-57
2021/05/10 07:09:14;;;;;;;3.50;0.50;;;21.30;82.50;;;;;;5079463;28;20115;-56
2021/05/10 07:11:42;;;;;;;1.48;0.60;;;21.40;82.10;;;;;;5064088;28;20123;-56
2021/05/10 07:14:10;;;;;;;1.30;0.50;;;21.60;80.90;;;;;;5063504;28;20028;-56
2021/05/10 07:16:36;;;;;;;0.82;0.43;;;21.90;80.50;;;;;;5064754;28;20122;-56
2021/05/10 07:19:02;;;;;;;0.85;0.50;;;22.10;78.10;;;;;;5064106;28;20028;-57
2021/05/10 07:21:28;;;;;;;0.93;0.45;;;22.30;77.20;;;;;;5063934;28;20536;-56
2021/05/10 07:23:53;;;;;;;2.15;0.50;;;22.60;76.40;;;;;;5064675;28;20476;-57
2021/05/10 07:26:19;;;;;;;2.53;0.82;;;22.40;75.70;;;;;;5065053;28;20051;-56
2021/05/10 07:28:48;;;;;;;4.25;0.60;;;22.20;77.50;;;;;;5064149;28;20386;-56
2021/05/10 07:31:14;;;;;;;2.30;0.50;;;22.10;77.90;;;;;;5065664;28;20039;-56
2021/05/10 07:33:39;;;;;;;0.65;0.30;;;22.00;75.90;;;;;;5064639;28;20661;-57
2021/05/10 07:36:05;;;;;;;0.75;0.55;;;22.00;75.70;;;;;;5063794;28;20044;-57
2021/05/10 07:38:31;;;;;;;0.40;0.30;;;21.70;74.90;;;;;;5062215;28;20056;-56
2021/05/10 07:40:57;;;;;;;1.17;0.40;;;21.60;75.30;;;;;;5063945;28;20028;-56
2021/05/10 07:43:23;;;;;;;2.80;1.17;;;21.40;76.60;;;;;;5064010;28;20025;-55
2021/05/10 07:45:51;;;;;;;0.65;0.30;;;21.40;76.60;;;;;;5080414;28;20698;-55
2021/05/10 07:48:17;;;;;;;1.63;0.45;;;21.30;76.50;;;;;;5063751;28;20525;-55
2021/05/10 07:50:45;;;;;;;2.92;0.35;;;21.30;75.00;;;;;;5064780;28;20032;-56
2021/05/10 07:53:13;;;;;;;0.57;0.47;;;21.20;75.50;;;;;;5063961;28;20066;-56
2021/05/10 07:55:40;;;;;;;1.27;0.20;;;21.00;76.60;;;;;;5080109;28;20113;-56
2021/05/10 07:58:08;;;;;;;2.50;0.40;;;20.90;77.20;;;;;;5064595;28;20028;-56
2021/05/10 08:00:39;;;;;;;2.90;0.40;;;20.90;77.60;;;;;;5064944;28;20097;-55
2021/05/10 08:03:07;;;;;;;0.38;0.38;;;20.80;77.20;;;;;;5064724;28;20044;-56
2021/05/10 08:05:37;;;;;;;0.28;0.20;;;20.70;77.20;;;;;;5064556;28;20357;-55
2021/05/10 08:08:03;;;;;;;0.50;0.20;;;20.80;76.60;;;;;;5063716;28;20111;-56
2021/05/10 08:10:32;;;;;;;3.03;0.20;;;20.80;76.80;;;;;;5063688;28;20586;-56
2021/05/10 08:13:00;;;;;;;0.32;0.20;;;20.80;76.90;;;;;;5064238;28;20070;-56
2021/05/10 08:15:28;;;;;;;1.70;0.40;;;20.80;77.20;;;;;;5063526;28;20044;-56
2021/05/10 08:28:04;;;;;;;1.63;0.17;;;20.40;81.30;;;;;;5067253;28;20043;-56
2021/05/10 08:30:31;;;;;;;0.77;0.70;;;20.20;82.80;;;;;;5065658;28;20028;-56
2021/05/10 08:32:58;;;;;;;2.17;0.20;;;20.10;83.90;;;;;;5067711;28;20154;-56
2021/05/10 08:35:28;;;;;;;0.65;0.10;;;20.10;83.80;;;;;;5067470;28;20024;-56
2021/05/10 08:37:56;;;;;;;0.43;0.13;;;20.10;84.40;;;;;;5066964;28;20032;-57
2021/05/10 08:40:22;;;;;;;7.55;0.30;;;20.10;84.50;;;;;;5068062;28;20480;-57
2021/05/10 08:42:47;;;;;;;1.73;0.28;;;20.10;84.40;;;;;;5068164;28;20032;-56
2021/05/10 08:45:23;;;;;;;0.55;0.30;;;20.20;84.50;;;;;;5067167;28;20724;-57
2021/05/10 08:47:49;;;;;;;4.68;0.63;;;20.20;80.80;;;;;;5067966;28;20024;-56
2021/05/10 08:50:15;;;;;;;1.60;0.30;;;20.10;81.60;;;;;;5066969;28;20089;-56
2021/05/10 08:52:46;;;;;;;0.10;0.10;;;20.10;81.50;;;;;;5052867;28;20040;-56
2021/05/10 08:55:17;;;;;;;0.55;0.20;;;20.00;81.50;;;;;;5066931;28;20101;-56
2021/05/10 08:57:45;;;;;;;0.30;0.30;;;19.80;83.10;;;;;;5068535;28;20031;-56
2021/05/10 09:00:13;;;;;;;2.42;0.75;;;19.80;83.40;;;;;;5067475;28;20132;-56
2021/05/10 09:02:39;;;;;;;0.20;0.20;;;19.80;84.10;;;;;;5067534;28;20041;-57
2021/05/10 09:05:14;;;;;;;2.05;0.20;;;19.90;84.30;;;;;;5066897;28;21958;-56
2021/05/10 09:07:42;;;;;;;0.38;0.10;;;19.80;84.60;;;;;;5066704;28;20084;-56
2021/05/10 09:10:13;;;;;;;1.58;0.20;;;19.70;85.20;;;;;;5067194;28;20039;-56
2021/05/10 09:12:42;;;;;;;1.75;0.10;;;19.60;86.00;;;;;;5067672;28;20032;-55
2021/05/10 09:15:24;;;;;;;0.52;0.10;;;19.50;86.50;;;;;;5066214;28;20119;-56
2021/05/10 09:18:02;;;;;;;0.10;0.10;;;19.50;86.60;;;;;;5066129;28;20024;-55
2021/05/10 09:20:37;;;;;;;0.45;0.20;;;19.40;87.50;;;;;;5066962;28;20030;-56
2021/05/10 09:23:05;;;;;;;1.30;0.30;;;19.40;87.90;;;;;;5067401;28;20021;-55
2021/05/10 09:25:32;;;;;;;1.35;0.10;;;19.50;88.90;;;;;;5067452;28;20032;-56
2021/05/10 09:28:16;;;;;;;0.57;0.17;;;19.50;87.60;;;;;;5066339;28;20040;-56
2021/05/10 09:30:43;;;;;;;0.60;0.10;;;19.60;87.30;;;;;;5066237;28;20024;-57
2021/05/10 09:33:24;;;;;;;1.95;0.20;;;19.70;86.70;;;;;;5064715;28;20024;-56
2021/05/10 09:35:52;;;;;;;0.10;0.10;;;19.90;86.10;;;;;;5067359;28;20032;-56
2021/05/10 09:38:26;;;;;;;0.10;0.10;;;20.00;84.90;;;;;;5067248;28;20103;-56
2021/05/10 09:40:54;;;;;;;0.10;0.05;;;20.00;84.10;;;;;;5066471;28;20670;-57
2021/05/10 09:43:23;;;;;;;1.65;0.85;;;20.00;84.70;;;;;;5082420;28;20453;-56
2021/05/10 09:45:56;;;;;;;2.95;1.58;;;20.20;84.30;;;;;;5067645;28;20075;-57
2021/05/10 09:48:39;;;;;;;0.43;0.20;;;20.20;84.30;;;;;;5066953;28;20025;-56
2021/05/10 09:51:12;;;;;;;1.38;0.20;;;20.20;84.50;;;;;;5063344;28;20059;-57
2021/05/10 09:53:43;;;;;;;4.03;0.40;;;20.30;84.30;;;;;;5060916;28;20039;-56
2021/05/10 09:56:12;;;;;;;0.60;0.20;;;20.30;84.20;;;;;;5062365;28;20116;-57
2021/05/10 09:58:54;;;;;;;0.70;0.10;;;20.10;84.00;;;;;;5056566;28;20175;-58
2021/05/10 10:01:24;;;;;;;0.55;0.20;;;20.10;84.80;;;;;;5054944;28;20036;-57
2021/05/10 10:04:00;;;;;;;0.25;0.10;;;20.00;85.00;;;;;;5054181;28;20036;-56
2021/05/10 10:06:29;;;;;;;2.50;0.10;;;19.90;85.10;;;;;;5056883;28;20039;-56
2021/05/10 10:08:59;;;;;;;0.40;0.40;;;20.00;84.90;;;;;;5055469;28;20062;-56
2021/05/10 10:11:27;;;;;;;0.35;0.10;;;20.10;84.60;;;;;;5055167;28;20441;-56
2021/05/10 10:13:57;;;;;;;3.97;0.55;;;20.30;84.70;;;;;;5057444;28;20410;-56
2021/05/10 10:16:26;;;;;;;1.20;0.20;;;20.50;83.60;;;;;;5055214;28;20159;-56
2021/05/10 10:18:53;;;;;;;1.00;0.20;;;20.70;82.80;;;;;;5055476;28;20027;-57
2021/05/10 10:21:23;;;;;;;0.93;0.28;;;20.80;81.90;;;;;;5072005;28;20143;-56
2021/05/10 10:24:03;;;;;;;0.88;0.13;;;20.70;81.60;;;;;;5056200;28;20024;-56
2021/05/10 10:26:29;;;;;;;0.82;0.15;;;20.60;81.00;;;;;;5055153;28;20108;-56
2021/05/10 10:28:57;;;;;;;2.17;0.45;;;20.70;80.40;;;;;;5054786;28;20936;-57
2021/05/10 10:31:33;;;;;;;0.22;0.17;;;20.80;80.90;;;;;;5055243;28;20729;-56
2021/05/10 10:34:07;;;;;;;0.47;0.20;;;21.00;78.30;;;;;;5052619;28;20024;-56
2021/05/10 10:36:42;;;;;;;4.03;0.43;;;21.10;78.90;;;;;;5056974;28;20046;-56
2021/05/10 10:39:19;;;;;;;0.63;0.30;;;21.10;76.40;;;;;;5055002;28;20139;-56
2021/05/10 10:41:53;;;;;;;0.93;0.10;;;21.00;75.40;;;;;;5054432;28;20120;-56
2021/05/10 10:44:52;;;;;;;0.63;0.20;;;20.70;75.40;;;;;;5055451;28;20496;-56
2021/05/10 10:47:43;;;;;;;0.10;0.10;;;20.60;76.90;;;;;;5053493;28;20024;-56
2021/05/10 10:50:16;;;;;;;0.47;0.20;;;20.80;73.30;;;;;;5056894;28;20035;-56
2021/05/10 10:52:48;;;;;;;1.50;0.20;;;20.80;73.90;;;;;;5054986;28;20279;-56
2021/05/10 10:55:30;;;;;;;0.25;0.20;;;20.60;74.80;;;;;;5054299;28;20567;-56
2021/05/10 10:58:24;;;;;;;1.17;0.30;;;20.60;75.30;;;;;;5057602;28;20074;-56
2021/05/10 11:00:56;;;;;;;0.32;0.20;;;20.40;75.50;;;;;;5069192;28;20055;-56
2021/05/10 11:03:26;;;;;;;0.40;0.20;;;20.50;76.70;;;;;;5055224;28;20040;-56
2021/05/10 11:05:52;;;;;;;6.43;0.25;;;20.50;76.60;;;;;;5058024;28;22071;-56
2021/05/10 11:08:37;;;;;;;1.33;0.30;;;20.70;76.30;;;;;;5063776;28;20161;-55
2021/05/10 11:11:03;;;;;;;1.88;0.38;;;20.90;75.70;;;;;;5064430;28;20427;-56
2021/05/10 11:13:31;;;;;;;0.73;0.20;;;21.30;73.80;;;;;;5063470;28;20071;-56
2021/05/10 11:16:01;;;;;;;1.55;0.30;;;21.60;72.20;;;;;;5061814;28;20040;-56
2021/05/10 11:18:57;;;;;;;1.02;0.35;;;21.90;69.80;;;;;;5063926;28;20016;-56
2021/05/10 11:21:26;;;;;;;1.08;0.20;;;22.00;68.60;;;;;;5055006;28;20119;-56
2021/05/10 11:23:59;;;;;;;0.75;0.35;;;22.20;66.90;;;;;;5064022;28;20040;-56
2021/05/10 11:26:51;;;;;;;1.85;0.32;;;22.20;64.50;;;;;;5064207;28;20024;-56
2021/05/10 11:29:26;;;;;;;1.35;0.35;;;22.20;64.10;;;;;;5079931;28;20039;-57
2021/05/10 11:31:55;;;;;;;2.50;0.30;;;22.10;64.90;;;;;;5064883;28;20032;-57
2021/05/10 11:34:30;;;;;;;2.20;0.20;;;22.10;64.70;;;;;;5080889;28;20043;-56
2021/05/10 11:36:56;;;;;;;0.95;0.38;;;21.90;65.50;;;;;;5061776;28;20028;-56
2021/05/10 11:39:27;;;;;;;2.67;0.40;;;21.70;67.30;;;;;;5063017;28;20025;-56
2021/05/10 11:42:22;;;;;;;0.35;0.20;;;21.40;68.20;;;;;;5064339;28;20146;-56
2021/05/10 11:44:55;;;;;;;0.50;0.25;;;21.20;69.70;;;;;;5063962;28;20052;-56
2021/05/10 11:47:25;;;;;;;5.78;1.02;;;21.10;70.70;;;;;;5064253;28;20869;-55
2021/05/10 11:49:51;;;;;;;1.52;0.30;;;21.00;71.90;;;;;;5065969;28;20112;-56
2021/05/10 11:52:22;;;;;;;0.35;0.28;;;21.00;71.80;;;;;;5068855;28;20032;-56
2021/05/10 11:54:51;;;;;;;0.63;0.20;;;20.90;71.80;;;;;;5068614;28;20083;-56
2021/05/10 11:57:41;;;;;;;0.70;0.40;;;20.80;72.40;;;;;;5084381;28;20163;-56
2021/05/10 12:00:13;;;;;;;2.28;0.30;;;20.80;72.50;;;;;;5068775;28;20035;-56
2021/05/10 12:02:43;;;;;;;0.47;0.30;;;20.80;73.10;;;;;;5068592;28;20041;-56
2021/05/10 12:05:11;;;;;;;1.27;0.55;;;20.80;73.30;;;;;;5068256;28;20047;-57
2021/05/10 12:07:38;;;;;;;0.32;0.30;;;20.80;73.30;;;;;;5067923;28;20106;-57
2021/05/10 12:10:12;;;;;;;0.50;0.30;;;20.80;73.70;;;;;;5083218;28;20035;-55
2021/05/10 12:12:41;;;;;;;0.65;0.20;;;20.80;73.80;;;;;;5052999;28;20024;-56
2021/05/10 12:15:12;;;;;;;0.20;0.20;;;20.80;74.80;;;;;;5067269;28;20119;-56
2021/05/10 12:17:44;;;;;;;1.33;1.00;;;20.90;74.60;;;;;;5068363;28;20020;-56
2021/05/10 12:20:13;;;;;;;0.28;0.22;;;21.10;74.10;;;;;;5068769;28;20648;-56
2021/05/10 12:22:47;;;;;;;0.98;0.47;;;21.40;73.20;;;;;;5068140;28;20048;-56
2021/05/10 12:25:25;;;;;;;2.60;0.30;;;21.50;70.50;;;;;;5065852;28;20083;-55
2021/05/10 12:28:13;;;;;;;0.45;0.30;;;21.60;70.00;;;;;;5067359;28;20035;-56
2021/05/10 12:30:41;;;;;;;3.03;0.17;;;21.60;68.70;;;;;;5068164;28;20042;-55
2021/05/10 12:33:12;;;;;;;1.13;0.52;;;21.40;70.60;;;;;;5067003;28;20036;-55
2021/05/10 12:35:43;;;;;;;1.13;0.38;;;21.20;72.00;;;;;;5066838;28;20156;-55
2021/05/10 12:38:10;;;;;;;1.05;0.40;;;21.10;72.50;;;;;;5067939;28;20063;-56
2021/05/10 12:40:44;;;;;;;4.38;0.60;;;21.10;73.70;;;;;;5067042;28;20054;-55
2021/05/10 12:43:15;;;;;;;1.73;0.50;;;21.00;75.90;;;;;;5066807;28;20029;-56
2021/05/10 12:45:45;;;;;;;1.58;0.40;;;20.80;78.30;;;;;;5067646;28;20032;-56
2021/05/10 12:48:13;;;;;;;2.15;0.55;;;20.50;80.00;;;;;;5066365;28;20055;-56
2021/05/10 12:50:44;;;;;;;1.88;0.30;;;20.40;81.60;;;;;;5066481;28;20032;-55
2021/05/10 12:53:10;;;;;;;3.67;0.60;;;20.20;82.10;;;;;;5067807;28;20029;-55
2021/05/10 12:55:40;;;;;;;1.00;0.30;;;20.00;83.00;;;;;;5067884;28;20032;-55
2021/05/10 12:58:23;;;;;;;1.13;0.30;;;20.10;83.30;;;;;;5067012;28;20025;-56
2021/05/10 13:00:51;;;;;;;1.52;0.20;;;20.10;83.10;;;;;;5082486;28;20024;-55
2021/05/10 13:03:30;;;;;;;0.60;0.40;;;20.10;83.10;;;;;;5066439;28;20040;-55
2021/05/10 13:05:58;;;;;;;3.13;0.68;;;20.10;83.20;;;;;;5065886;28;20053;-55
2021/05/10 13:08:42;;;;;;;3.83;0.40;;;20.00;83.80;;;;;;5066788;28;20499;-56
2021/05/10 13:11:21;;;;;;;0.73;0.40;;;19.90;84.00;;;;;;5067228;28;20037;-56